Time;durP1;ratioP1;P1;durP2;ratioP2;P2;SDS_P1;SDS_P2;PMS_P1;PMS_P2;Temp;Humidity;BMP_temperature;BMP_pressure;BME280_temperature;BME280_humidity;BME280_pressure;Samples;Min_cycle;Max_cycle;Signal;HPM_P1;HPM_P2
2023/01/04 00:00:18;;;;;;;;;;;;;;;10.18;nan;102638.69;4998310;28;19921;-35
2023/01/04 00:02:43;;;;;;;;;;;;;;;10.24;nan;102639.78;5002605;28;19940;-35
2023/01/04 00:05:09;;;;;;;;;;;;;;;10.24;nan;102632.56;4997255;28;20008;-36
2023/01/04 00:07:34;;;;;;;;;;;;;;;10.28;nan;102616.91;4997014;28;19929;-38
2023/01/04 00:09:59;;;;;;;;;;;;;;;10.31;nan;102615.69;4996221;28;19917;-35
2023/01/04 00:12:25;;;;;;;;;;;;;;;10.29;nan;102614.03;4996046;28;20399;-35
2023/01/04 00:14:50;;;;;;;;;;;;;;;10.31;nan;102608.47;5001645;28;19930;-35
2023/01/04 00:17:15;;;;;;;;;;;;;;;10.32;nan;102610.13;4995865;28;20271;-35
2023/01/04 00:19:40;;;;;;;;;;;;;;;10.30;nan;102601.47;4993601;28;20295;-35
2023/01/04 00:22:06;;;;;;;;;;;;;;;10.29;nan;102591.78;4996257;28;20310;-35
2023/01/04 00:24:31;;;;;;;;;;;;;;;10.28;nan;102595.50;4997264;28;20076;-36
2023/01/04 00:26:56;;;;;;;;;;;;;;;10.28;nan;102582.09;4999603;28;19965;-35
2023/01/04 00:29:22;;;;;;;;;;;;;;;10.29;nan;102581.88;4995201;28;19925;-35
2023/01/04 00:31:47;;;;;;;;;;;;;;;10.28;nan;102579.41;4993164;28;19917;-35
2023/01/04 00:34:14;;;;;;;;;;;;;;;10.31;nan;102576.31;4995394;28;19921;-35
2023/01/04 00:36:39;;;;;;;;;;;;;;;10.31;nan;102583.53;5001016;28;19917;-36
2023/01/04 00:39:11;;;;;;;;;;;;;;;10.34;nan;102572.41;4997498;28;19925;-35
2023/01/04 00:41:36;;;;;;;;;;;;;;;10.36;nan;102576.53;4993976;28;19925;-35
2023/01/04 00:44:03;;;;;;;;;;;;;;;10.33;nan;102562.72;4993845;28;20283;-37
2023/01/04 00:46:30;;;;;;;;;;;;;;;10.31;nan;102549.53;4997618;28;19925;-36
2023/01/04 00:48:55;;;;;;;;;;;;;;;10.29;nan;102547.06;4998588;28;19926;-37
2023/01/04 00:51:20;;;;;;;;;;;;;;;10.26;nan;102546.63;4995243;28;19917;-35
2023/01/04 00:53:46;;;;;;;;;;;;;;;10.27;nan;102542.94;4993741;28;19922;-36
2023/01/04 00:56:11;;;;;;;;;;;;;;;10.28;nan;102544.59;4995185;28;19917;-36
2023/01/04 00:58:36;;;;;;;;;;;;;;;10.24;nan;102546.84;5000085;28;19921;-36
2023/01/04 01:01:05;;;;;;;;;;;;;;;10.23;nan;102538.97;4996024;28;19922;-37
2023/01/04 01:03:31;;;;;;;;;;;;;;;10.17;nan;102535.22;4995891;28;19930;-38
2023/01/04 01:06:00;;;;;;;;;;;;;;;10.13;nan;102534.00;4995076;28;20300;-35
2023/01/04 01:08:26;;;;;;;;;;;;;;;10.13;nan;102528.63;4999135;28;19921;-35
2023/01/04 01:10:52;;;;;;;;;;;;;;;10.12;nan;102513.59;5004426;28;19945;-38
2023/01/04 01:13:18;;;;;;;;;;;;;;;10.10;nan;102510.28;4998013;28;20039;-36
2023/01/04 01:15:43;;;;;;;;;;;;;;;10.10;nan;102509.47;5002116;28;19917;-35
2023/01/04 01:18:08;;;;;;;;;;;;;;;10.08;nan;102504.31;5001945;28;20387;-35
2023/01/04 01:20:34;;;;;;;;;;;;;;;10.07;nan;102501.84;5009277;28;19971;-37
2023/01/04 01:22:59;;;;;;;;;;;;;;;10.03;nan;102498.72;5002288;28;20275;-35
2023/01/04 01:25:24;;;;;;;;;;;;;;;10.04;nan;102491.50;5000295;28;19921;-35
2023/01/04 01:27:50;;;;;;;;;;;;;;;10.03;nan;102493.38;5001086;28;19925;-35
2023/01/04 01:30:15;;;;;;;;;;;;;;;10.03;nan;102482.66;5002184;28;20308;-35
2023/01/04 01:32:40;;;;;;;;;;;;;;;9.96;nan;102498.72;5003747;28;20409;-35
2023/01/04 01:35:06;;;;;;;;;;;;;;;9.95;nan;102496.25;4998352;28;19936;-35
2023/01/04 01:37:31;;;;;;;;;;;;;;;9.94;nan;102500.78;4996822;28;19922;-38
2023/01/04 01:39:56;;;;;;;;;;;;;;;9.92;nan;102500.16;4999758;28;20358;-35
2023/01/04 01:42:22;;;;;;;;;;;;;;;9.86;nan;102506.28;5000802;28;20740;-35
2023/01/04 01:45:01;;;;;;;;;;;;;;;9.82;nan;102502.38;5002923;28;20423;-35
2023/01/04 01:47:31;;;;;;;;;;;;;;;9.81;nan;102508.75;4996856;28;20397;-35
2023/01/04 01:49:57;;;;;;;;;;;;;;;9.82;nan;102501.53;5022366;22;19929;-33
2023/01/04 01:52:28;;;;;;;;;;;;;;;9.83;nan;102490.63;5022236;28;19929;-33
2023/01/04 01:54:57;;;;;;;;;;;;;;;9.81;nan;102497.22;5020418;28;19960;-33
2023/01/04 01:57:24;;;;;;;;;;;;;;;9.78;nan;102494.94;5023681;28;19925;-32
2023/01/04 01:59:52;;;;;;;;;;;;;;;9.77;nan;102507.50;5018975;28;19917;-33
2023/01/04 02:02:18;;;;;;;;;;;;;;;9.71;nan;102500.28;5008871;28;19976;-32
2023/01/04 02:04:45;;;;;;;;;;;;;;;9.71;nan;102497.59;5009217;28;20351;-33
2023/01/04 02:07:12;;;;;;;;;;;;;;;9.68;nan;102498.81;5005476;28;19957;-33
2023/01/04 02:09:38;;;;;;;;;;;;;;;9.66;nan;102500.84;5008451;28;19921;-33
2023/01/04 02:12:03;;;;;;;;;;;;;;;9.67;nan;102497.16;5006818;28;20375;-33
2023/01/04 02:14:29;;;;;;;;;;;;;;;9.66;nan;102492.00;5008670;28;19925;-33
2023/01/04 02:17:03;;;;;;;;;;;;;;;9.66;nan;102476.75;5007869;28;19925;-34
2023/01/04 02:19:35;;;;;;;;;;;;;;;9.66;nan;102470.59;5008549;28;20392;-33
2023/01/04 02:22:12;;;;;;;;;;;;;;;9.63;nan;102473.66;5006362;28;19964;-33
2023/01/04 02:24:47;;;;;;;;;;;;;;;9.61;nan;102462.34;5008756;28;20279;-33
2023/01/04 02:27:18;;;;;;;;;;;;;;;9.61;nan;102473.88;5006256;28;19925;-33
2023/01/04 02:29:47;;;;;;;;;;;;;;;9.59;nan;102456.38;5007701;28;19944;-33
2023/01/04 02:32:24;;;;;;;;;;;;;;;9.58;nan;102444.84;5007148;28;20583;-33
2023/01/04 02:34:56;;;;;;;;;;;;;;;9.58;nan;102438.66;5007020;28;19968;-33
2023/01/04 02:37:37;;;;;;;;;;;;;;;9.58;nan;102419.94;5005970;28;20334;-33
2023/01/04 02:40:15;;;;;;;;;;;;;;;9.54;nan;102416.00;5007121;28;20405;-33
2023/01/04 02:45:31;;;;;;;;;;;;;;;9.46;nan;102389.41;5008481;28;19923;-33
2023/01/04 02:50:52;;;;;;;;;;;;;;;9.43;nan;102371.09;5006675;28;19925;-33
2023/01/04 02:53:19;;;;;;;;;;;;;;;9.40;nan;102377.69;5007488;28;20363;-33
2023/01/04 02:55:45;;;;;;;;;;;;;;;9.41;nan;102357.09;5007228;28;19975;-33
2023/01/04 02:58:35;;;;;;;;;;;;;;;9.41;nan;102354.41;5006617;28;20295;-33
2023/01/04 03:07:01;;;;;;;;;;;;;;;9.44;nan;102337.97;5007314;28;19947;-33
2023/01/04 03:09:29;;;;;;;;;;;;;;;9.41;nan;102328.50;5006709;28;19921;-33
2023/01/04 03:14:46;;;;;;;;;;;;;;;9.37;nan;102333.44;5006318;28;19929;-32
2023/01/04 03:17:13;;;;;;;;;;;;;;;9.32;nan;102319.81;5005616;28;20084;-33
2023/01/04 03:36:43;;;;;;;;;;;;;;;9.28;nan;102291.81;5006084;28;19972;-33
2023/01/04 03:50:49;;;;;;;;;;;;;;;9.29;nan;102271.25;5003224;28;19924;-33
2023/01/04 03:53:14;;;;;;;;;;;;;;;9.26;nan;102263.63;5005626;28;19964;-33
2023/01/04 03:55:42;;;;;;;;;;;;;;;9.25;nan;102251.28;5005549;28;20436;-33
2023/01/04 03:58:07;;;;;;;;;;;;;;;9.24;nan;102253.13;5003583;28;19932;-34
2023/01/04 04:00:33;;;;;;;;;;;;;;;9.27;nan;102241.22;5004137;28;20275;-32
2023/01/04 04:03:11;;;;;;;;;;;;;;;9.27;nan;102234.00;5006062;28;19922;-33
2023/01/04 04:08:26;;;;;;;;;;;;;;;9.35;nan;102208.94;5000191;28;19988;-33
2023/01/04 04:10:52;;;;;;;;;;;;;;;9.34;nan;102210.78;5006522;28;19968;-33
2023/01/04 04:13:17;;;;;;;;;;;;;;;9.32;nan;102204.78;5005907;28;19933;-33
2023/01/04 04:15:42;;;;;;;;;;;;;;;9.32;nan;102196.78;5005882;28;19924;-33
2023/01/04 04:18:08;;;;;;;;;;;;;;;9.33;nan;102189.56;5004049;28;19917;-33
2023/01/04 04:20:33;;;;;;;;;;;;;;;9.30;nan;102185.44;5005604;28;20391;-32
2023/01/04 04:22:59;;;;;;;;;;;;;;;9.34;nan;102189.38;5005662;28;19929;-33
2023/01/04 04:25:24;;;;;;;;;;;;;;;9.32;nan;102170.03;5006175;28;19921;-32
2023/01/04 04:27:49;;;;;;;;;;;;;;;9.33;nan;102166.31;5004686;28;19921;-33
2023/01/04 04:30:15;;;;;;;;;;;;;;;9.31;nan;102165.69;5001786;28;19987;-33
2023/01/04 04:32:40;;;;;;;;;;;;;;;9.33;nan;102152.94;5006837;28;19922;-33
2023/01/04 04:35:06;;;;;;;;;;;;;;;9.36;nan;102141.03;5004742;28;20415;-34
2023/01/04 04:37:33;;;;;;;;;;;;;;;9.32;nan;102129.06;5006564;28;19959;-33
2023/01/04 04:39:58;;;;;;;;;;;;;;;9.22;nan;102128.69;5004758;28;19984;-33
2023/01/04 04:42:23;;;;;;;;;;;;;;;9.21;nan;102125.19;5002574;28;19926;-33
2023/01/04 04:44:49;;;;;;;;;;;;;;;9.20;nan;102130.75;5007871;28;19928;-33
2023/01/04 04:47:14;;;;;;;;;;;;;;;9.15;nan;102135.84;5010188;28;19957;-32
2023/01/04 04:49:40;;;;;;;;;;;;;;;9.15;nan;102125.16;5010483;28;19976;-32
2023/01/04 04:52:05;;;;;;;;;;;;;;;9.09;nan;102113.44;5008562;28;19925;-33
2023/01/04 04:54:30;;;;;;;;;;;;;;;9.09;nan;102102.75;5008481;28;20426;-33
2023/01/04 04:56:56;;;;;;;;;;;;;;;9.09;nan;102092.06;5008722;28;19968;-34
2023/01/04 04:59:21;;;;;;;;;;;;;;;9.08;nan;102095.75;5008624;28;20011;-33
2023/01/04 05:01:46;;;;;;;;;;;;;;;9.12;nan;102088.16;5010084;28;20211;-34
2023/01/04 05:04:15;;;;;;;;;;;;;;;9.10;nan;102080.34;5007272;28;19929;-32
2023/01/04 05:06:41;;;;;;;;;;;;;;;9.14;nan;102070.88;5009011;28;19917;-32
2023/01/04 05:09:06;;;;;;;;;;;;;;;9.13;nan;102055.84;5008080;28;19925;-33
2023/01/04 05:14:16;;;;;;;;;;;;;;;9.15;nan;102043.09;5004607;28;19932;-32
2023/01/04 05:16:41;;;;;;;;;;;;;;;9.12;nan;102040.00;5008289;28;19917;-31
2023/01/04 05:19:06;;;;;;;;;;;;;;;9.16;nan;102039.41;5009242;28;19925;-31
2023/01/04 05:21:32;;;;;;;;;;;;;;;9.14;nan;102020.06;5010160;28;20287;-31
2023/01/04 05:23:57;;;;;;;;;;;;;;;9.19;nan;102004.25;5008348;28;20299;-31
2023/01/04 05:26:22;;;;;;;;;;;;;;;9.20;nan;101999.72;5004757;28;19955;-31
2023/01/04 05:28:48;;;;;;;;;;;;;;;9.23;nan;101999.28;5008901;28;19921;-31
2023/01/04 05:31:13;;;;;;;;;;;;;;;9.26;nan;101991.66;5009107;28;19933;-31
2023/01/04 05:33:38;;;;;;;;;;;;;;;9.24;nan;102001.75;5009395;28;19925;-31
2023/01/04 05:36:04;;;;;;;;;;;;;;;9.21;nan;101987.97;5003538;28;19921;-31
2023/01/04 05:38:29;;;;;;;;;;;;;;;9.23;nan;101986.75;5007916;28;19936;-31
2023/01/04 05:40:55;;;;;;;;;;;;;;;9.23;nan;101978.72;5008089;28;19936;-31
2023/01/04 05:43:21;;;;;;;;;;;;;;;9.23;nan;101973.38;5009138;28;19921;-31
2023/01/04 05:45:48;;;;;;;;;;;;;;;9.19;nan;101968.66;5008590;28;20359;-31
2023/01/04 05:48:13;;;;;;;;;;;;;;;9.17;nan;101960.84;5006801;28;20149;-31
2023/01/04 05:50:38;;;;;;;;;;;;;;;9.18;nan;101964.34;5007968;28;20542;-31
2023/01/04 05:53:05;;;;;;;;;;;;;;;9.22;nan;101953.00;5008263;28;20713;-31
2023/01/04 05:55:30;;;;;;;;;;;;;;;9.15;nan;101944.16;5008766;28;19925;-31
2023/01/04 05:57:55;;;;;;;;;;;;;;;9.19;nan;101932.03;5008464;28;19925;-31
2023/01/04 06:00:21;;;;;;;;;;;;;;;9.25;nan;101925.84;5007190;28;20022;-31
2023/01/04 06:02:46;;;;;;;;;;;;;;;9.29;nan;101921.72;5006683;28;19917;-31
2023/01/04 06:05:12;;;;;;;;;;;;;;;9.29;nan;101915.53;5008641;28;20466;-31
2023/01/04 06:07:37;;;;;;;;;;;;;;;9.28;nan;101898.66;5007837;28;19921;-31
2023/01/04 06:10:03;;;;;;;;;;;;;;;9.31;nan;101897.41;5008599;28;19940;-31
2023/01/04 06:12:29;;;;;;;;;;;;;;;9.33;nan;101885.47;5007842;28;19917;-31
2023/01/04 06:14:54;;;;;;;;;;;;;;;9.28;nan;101871.09;5007689;28;20020;-31
2023/01/04 06:17:19;;;;;;;;;;;;;;;9.27;nan;101864.13;5008420;28;19921;-31
2023/01/04 06:19:45;;;;;;;;;;;;;;;9.34;nan;101870.28;5007593;28;19921;-31
2023/01/04 06:22:10;;;;;;;;;;;;;;;9.35;nan;101861.22;5007518;28;19925;-31
2023/01/04 06:24:35;;;;;;;;;;;;;;;9.35;nan;101850.53;5009554;28;19921;-31
2023/01/04 06:27:01;;;;;;;;;;;;;;;9.36;nan;101852.97;5006580;28;20414;-31
2023/01/04 06:29:27;;;;;;;;;;;;;;;9.39;nan;101855.22;5007555;28;20330;-31
2023/01/04 06:31:52;;;;;;;;;;;;;;;9.46;nan;101859.72;5007535;28;19969;-31
2023/01/04 06:34:17;;;;;;;;;;;;;;;9.51;nan;101846.50;5006128;28;19933;-31
2023/01/04 06:36:43;;;;;;;;;;;;;;;9.53;nan;101836.44;5008111;28;19917;-31
2023/01/04 06:39:08;;;;;;;;;;;;;;;9.56;nan;101844.03;5006994;28;20384;-31
2023/01/04 06:41:34;;;;;;;;;;;;;;;9.62;nan;101833.28;5008660;28;20012;-31
2023/01/04 06:43:59;;;;;;;;;;;;;;;9.64;nan;101827.72;5006209;28;19921;-31
2023/01/04 06:46:24;;;;;;;;;;;;;;;9.66;nan;101826.44;5006128;28;20156;-32
2023/01/04 06:48:52;;;;;;;;;;;;;;;9.71;nan;101819.66;5006507;28;20381;-32
2023/01/04 06:51:17;;;;;;;;;;;;;;;9.76;nan;101812.63;5008172;28;20002;-31
2023/01/04 06:53:43;;;;;;;;;;;;;;;9.86;nan;101804.91;5006635;28;19968;-31
2023/01/04 06:56:08;;;;;;;;;;;;;;;9.92;nan;101798.69;5007617;28;19947;-31
2023/01/04 06:58:34;;;;;;;;;;;;;;;10.03;nan;101801.69;5008138;28;19918;-31
2023/01/04 07:01:00;;;;;;;;;;;;;;;10.10;nan;101805.97;5005940;28;19925;-31
2023/01/04 07:03:25;;;;;;;;;;;;;;;10.21;nan;101791.06;5007618;28;20454;-32
2023/01/04 07:05:51;;;;;;;;;;;;;;;10.23;nan;101787.16;5004047;28;20472;-32
2023/01/04 07:08:16;;;;;;;;;;;;;;;10.29;nan;101785.44;5008034;28;19961;-31
2023/01/04 07:10:42;;;;;;;;;;;;;;;10.36;nan;101778.16;5008281;28;20337;-32
2023/01/04 07:13:07;;;;;;;;;;;;;;;10.38;nan;101776.06;5004695;28;20379;-32
2023/01/04 07:15:33;;;;;;;;;;;;;;;10.42;nan;101761.19;5006997;28;19930;-31
2023/01/04 07:17:58;;;;;;;;;;;;;;;10.45;nan;101754.56;5005986;28;19991;-32
2023/01/04 07:20:24;;;;;;;;;;;;;;;10.49;nan;101745.03;5007593;28;19933;-32
2023/01/04 07:22:49;;;;;;;;;;;;;;;10.56;nan;101751.97;5003929;28;19921;-31
2023/01/04 07:25:15;;;;;;;;;;;;;;;10.57;nan;101737.50;5003433;28;19971;-32
2023/01/04 07:27:40;;;;;;;;;;;;;;;10.62;nan;101736.03;5002571;28;20048;-32
2023/01/04 07:30:05;;;;;;;;;;;;;;;10.64;nan;101734.78;5004660;28;20253;-32
2023/01/04 07:32:31;;;;;;;;;;;;;;;10.63;nan;101725.09;5007428;28;20224;-32
2023/01/04 07:34:57;;;;;;;;;;;;;;;10.67;nan;101726.28;5006874;28;19940;-32
2023/01/04 07:37:22;;;;;;;;;;;;;;;10.70;nan;101722.31;5006435;28;19933;-31
2023/01/04 07:39:48;;;;;;;;;;;;;;;10.72;nan;101702.28;5005636;28;20371;-32
2023/01/04 07:42:13;;;;;;;;;;;;;;;10.74;nan;101702.88;5006098;28;20174;-32
2023/01/04 07:44:38;;;;;;;;;;;;;;;10.77;nan;101698.94;5004889;28;20233;-31
2023/01/04 07:47:04;;;;;;;;;;;;;;;10.86;nan;101700.25;5006470;28;19918;-32
2023/01/04 07:49:29;;;;;;;;;;;;;;;10.86;nan;101685.00;5005335;28;19925;-33
2023/01/04 07:51:55;;;;;;;;;;;;;;;10.97;nan;101694.16;5003990;28;20180;-33
2023/01/04 07:54:20;;;;;;;;;;;;;;;10.98;nan;101679.69;5007503;28;20291;-33
2023/01/04 07:56:46;;;;;;;;;;;;;;;11.06;nan;101678.53;5007034;28;19923;-33
2023/01/04 07:59:12;;;;;;;;;;;;;;;11.05;nan;101668.84;5003569;28;19918;-34
2023/01/04 08:01:37;;;;;;;;;;;;;;;11.08;nan;101663.84;5005700;28;19917;-33
2023/01/04 08:04:04;;;;;;;;;;;;;;;11.16;nan;101665.41;5004575;28;19928;-33
2023/01/04 08:06:30;;;;;;;;;;;;;;;11.14;nan;101651.41;5005740;28;19921;-33
2023/01/04 08:08:56;;;;;;;;;;;;;;;11.19;nan;101643.47;5006475;28;20310;-33
2023/01/04 08:11:23;;;;;;;;;;;;;;;11.25;nan;101636.38;5007228;28;20376;-33
2023/01/04 08:13:48;;;;;;;;;;;;;;;11.27;nan;101639.63;5007113;28;20354;-33
2023/01/04 08:16:17;;;;;;;;;;;;;;;11.24;nan;101624.00;5003923;28;19925;-33
2023/01/04 08:18:43;;;;;;;;;;;;;;;11.28;nan;101619.81;5004969;28;20004;-33
2023/01/04 08:21:08;;;;;;;;;;;;;;;11.24;nan;101607.91;5005622;28;20008;-33
2023/01/04 08:23:34;;;;;;;;;;;;;;;11.29;nan;101616.88;5007016;28;20166;-33
2023/01/04 08:26:02;;;;;;;;;;;;;;;11.31;nan;101608.59;5007147;28;19976;-33
2023/01/04 08:28:28;;;;;;;;;;;;;;;11.25;nan;101601.50;5005912;28;20384;-33
2023/01/04 08:30:53;;;;;;;;;;;;;;;11.25;nan;101599.63;5007073;28;19929;-33
2023/01/04 08:33:19;;;;;;;;;;;;;;;11.22;nan;101597.41;5005915;28;19955;-33
2023/01/04 08:35:44;;;;;;;;;;;;;;;11.22;nan;101607.31;5007089;28;20426;-33
2023/01/04 08:38:09;;;;;;;;;;;;;;;11.23;nan;101600.91;5006270;28;19977;-33
2023/01/04 08:40:35;;;;;;;;;;;;;;;11.29;nan;101591.94;5006722;28;19924;-33
2023/01/04 08:43:00;;;;;;;;;;;;;;;11.34;nan;101598.25;5006653;28;19921;-33
2023/01/04 08:45:25;;;;;;;;;;;;;;;11.26;nan;101587.84;5006283;28;19941;-33
2023/01/04 08:47:51;;;;;;;;;;;;;;;11.22;nan;101589.38;5005885;28;19917;-32
2023/01/04 08:50:19;;;;;;;;;;;;;;;11.25;nan;101585.41;5005908;28;19921;-32
2023/01/04 08:52:44;;;;;;;;;;;;;;;11.22;nan;101588.56;5006407;28;19980;-33
2023/01/04 08:55:12;;;;;;;;;;;;;;;11.23;nan;101571.41;5004300;28;20206;-33
2023/01/04 08:57:37;;;;;;;;;;;;;;;11.22;nan;101586.69;5005876;28;20009;-35
2023/01/04 09:00:03;;;;;;;;;;;;;;;11.25;nan;101570.13;5005922;28;20014;-33
2023/01/04 09:02:29;;;;;;;;;;;;;;;11.20;nan;101565.47;5006982;28;19968;-33
2023/01/04 09:04:58;;;;;;;;;;;;;;;11.18;nan;101556.84;5005396;28;19964;-33
2023/01/04 09:07:24;;;;;;;;;;;;;;;11.21;nan;101547.50;5006263;28;20008;-33
2023/01/04 09:09:49;;;;;;;;;;;;;;;11.21;nan;101547.50;5006589;28;19926;-33
2023/01/04 09:12:15;;;;;;;;;;;;;;;11.22;nan;101546.44;5006324;28;19949;-33
2023/01/04 09:14:40;;;;;;;;;;;;;;;11.23;nan;101536.53;5006137;28;19921;-33
2023/01/04 09:17:05;;;;;;;;;;;;;;;11.23;nan;101531.16;5005601;28;19921;-33
2023/01/04 09:19:31;;;;;;;;;;;;;;;11.25;nan;101523.69;5005825;28;19944;-33
2023/01/04 09:21:56;;;;;;;;;;;;;;;11.27;nan;101511.69;5005487;28;19975;-33
2023/01/04 09:24:22;;;;;;;;;;;;;;;11.28;nan;101515.19;5005254;28;19963;-33
2023/01/04 09:26:47;;;;;;;;;;;;;;;11.37;nan;101521.84;5005781;28;19921;-33
2023/01/04 09:29:13;;;;;;;;;;;;;;;11.34;nan;101517.75;5004885;28;19917;-33
2023/01/04 09:31:38;;;;;;;;;;;;;;;11.35;nan;101505.97;5008469;28;19917;-33
2023/01/04 09:34:04;;;;;;;;;;;;;;;11.31;nan;101504.81;5009986;28;19928;-34
2023/01/04 09:36:29;;;;;;;;;;;;;;;11.35;nan;101502.47;5010173;28;20453;-33
2023/01/04 09:38:54;;;;;;;;;;;;;;;11.31;nan;101491.41;5009463;28;20029;-34
2023/01/04 09:41:31;;;;;;;;;;;;;;;11.23;nan;101491.75;5008893;28;19964;-33
2023/01/04 09:43:56;;;;;;;;;;;;;;;11.26;nan;101487.78;5008986;28;19925;-33
2023/01/04 09:46:25;;;;;;;;;;;;;;;11.27;nan;101476.00;5009951;28;19923;-33
2023/01/04 09:48:52;;;;;;;;;;;;;;;11.33;nan;101488.50;5008592;28;19933;-34
2023/01/04 09:51:19;;;;;;;;;;;;;;;11.37;nan;101476.22;5008749;28;19975;-33
2023/01/04 09:53:56;;;;;;;;;;;;;;;11.30;nan;101470.16;5009624;28;19925;-32
2023/01/04 09:56:30;;;;;;;;;;;;;;;11.30;nan;101460.25;5009648;28;19917;-33
2023/01/04 09:58:57;;;;;;;;;;;;;;;11.31;nan;101445.81;5008099;28;19918;-34
2023/01/04 10:01:22;;;;;;;;;;;;;;;11.32;nan;101444.75;5009448;28;19922;-34
2023/01/04 10:03:54;;;;;;;;;;;;;;;11.34;nan;101431.09;5008949;28;20123;-33
2023/01/04 10:06:19;;;;;;;;;;;;;;;11.39;nan;101420.47;5008674;28;19922;-33
2023/01/04 10:08:45;;;;;;;;;;;;;;;11.47;nan;101410.16;5008789;28;19917;-32
2023/01/04 10:11:28;;;;;;;;;;;;;;;11.46;nan;101400.47;5008773;28;19969;-33
2023/01/04 10:14:02;;;;;;;;;;;;;;;11.45;nan;101392.66;5008236;28;19921;-33
2023/01/04 10:16:46;;;;;;;;;;;;;;;11.43;nan;101414.38;5009113;28;19928;-33
2023/01/04 10:19:17;;;;;;;;;;;;;;;11.47;nan;101383.31;5006592;28;19933;-33
2023/01/04 10:21:47;;;;;;;;;;;;;;;11.54;nan;101377.84;5009512;28;19976;-33
2023/01/04 10:24:30;;;;;;;;;;;;;;;11.57;nan;101371.19;5008166;28;20330;-33
2023/01/04 10:27:04;;;;;;;;;;;;;;;11.64;nan;101361.09;5007909;28;20021;-35
2023/01/04 10:29:37;;;;;;;;;;;;;;;11.64;nan;101356.53;5007882;28;20350;-35
2023/01/04 10:32:03;;;;;;;;;;;;;;;11.71;nan;101353.72;5008950;28;19921;-32
2023/01/04 10:34:30;;;;;;;;;;;;;;;11.71;nan;101351.88;5008432;28;19926;-33
2023/01/04 10:37:03;;;;;;;;;;;;;;;11.71;nan;101341.13;5008314;28;20397;-35
2023/01/04 10:39:30;;;;;;;;;;;;;;;11.75;nan;101342.25;5008298;28;19921;-33
2023/01/04 10:41:58;;;;;;;;;;;;;;;11.78;nan;101332.91;5007816;28;19924;-34
2023/01/04 10:44:35;;;;;;;;;;;;;;;11.83;nan;101329.53;5008167;28;19921;-32
2023/01/04 10:47:10;;;;;;;;;;;;;;;11.96;nan;101337.28;5007209;28;20387;-33
2023/01/04 10:49:40;;;;;;;;;;;;;;;12.02;nan;101310.25;5008360;28;20290;-33
2023/01/04 10:52:09;;;;;;;;;;;;;;;12.05;nan;101303.59;5007646;28;20292;-33
2023/01/04 10:54:40;;;;;;;;;;;;;;;12.03;nan;101285.06;5007171;28;19922;-32
2023/01/04 10:57:05;;;;;;;;;;;;;;;12.03;nan;101300.34;5008988;28;19940;-34
2023/01/04 10:59:35;;;;;;;;;;;;;;;12.04;nan;101288.56;5008130;28;20008;-33
2023/01/04 11:02:12;;;;;;;;;;;;;;;12.06;nan;101273.81;5008532;28;20012;-33
2023/01/04 11:04:43;;;;;;;;;;;;;;;12.13;nan;101267.44;5005172;28;19924;-35
2023/01/04 11:07:14;;;;;;;;;;;;;;;12.16;nan;101261.59;5007431;28;19921;-33
2023/01/04 11:09:51;;;;;;;;;;;;;;;12.19;nan;101263.78;5004983;28;19925;-33
2023/01/04 11:12:17;;;;;;;;;;;;;;;12.25;nan;101250.19;5006469;28;20016;-33
2023/01/04 11:14:43;;;;;;;;;;;;;;;12.31;nan;101254.56;5008082;28;19932;-33
2023/01/04 11:17:09;;;;;;;;;;;;;;;12.34;nan;101255.94;5007425;28;20008;-33
2023/01/04 11:19:35;;;;;;;;;;;;;;;12.34;nan;101237.94;5008040;28;19922;-34
2023/01/04 11:22:10;;;;;;;;;;;;;;;12.37;nan;101225.88;5007747;28;19968;-33
2023/01/04 11:24:36;;;;;;;;;;;;;;;12.41;nan;101232.41;5008704;28;19917;-33
2023/01/04 11:27:06;;;;;;;;;;;;;;;12.37;nan;101225.88;5001437;28;20335;-33
2023/01/04 11:29:31;;;;;;;;;;;;;;;12.44;nan;101214.97;5018850;28;20387;-33
2023/01/04 11:32:01;;;;;;;;;;;;;;;12.42;nan;101209.84;5003878;28;19967;-33
2023/01/04 11:34:44;;;;;;;;;;;;;;;12.45;nan;101201.28;5005415;28;19932;-34
2023/01/04 11:37:29;;;;;;;;;;;;;;;12.53;nan;101197.34;5007124;28;19921;-33
2023/01/04 11:40:12;;;;;;;;;;;;;;;12.55;nan;101197.91;5001234;28;19923;-33
2023/01/04 11:42:38;;;;;;;;;;;;;;;12.52;nan;101195.72;5000843;28;19918;-33
2023/01/04 11:45:03;;;;;;;;;;;;;;;12.53;nan;101187.41;5005630;28;19987;-35
2023/01/04 11:47:29;;;;;;;;;;;;;;;12.54;nan;101175.59;5004281;28;19921;-33
2023/01/04 11:49:54;;;;;;;;;;;;;;;12.55;nan;101179.91;5002593;28;20260;-34
2023/01/04 11:52:25;;;;;;;;;;;;;;;12.56;nan;101194.16;5004060;28;20454;-34
2023/01/04 11:54:51;;;;;;;;;;;;;;;12.61;nan;101181.59;5003759;28;19936;-33
2023/01/04 11:57:17;;;;;;;;;;;;;;;12.67;nan;101164.47;5001431;28;19917;-33
2023/01/04 11:59:43;;;;;;;;;;;;;;;12.66;nan;101170.09;5004085;28;19926;-33
2023/01/04 12:02:24;;;;;;;;;;;;;;;12.64;nan;101170.34;5002061;28;19984;-33
2023/01/04 12:04:53;;;;;;;;;;;;;;;12.68;nan;101162.59;5004488;28;19926;-34
2023/01/04 12:07:24;;;;;;;;;;;;;;;12.71;nan;101154.81;4999177;28;20351;-34
2023/01/04 12:09:50;;;;;;;;;;;;;;;12.73;nan;101143.00;5003902;28;19922;-33
2023/01/04 12:12:15;;;;;;;;;;;;;;;12.75;nan;101136.31;5003655;28;20513;-34
2023/01/04 12:14:44;;;;;;;;;;;;;;;12.78;nan;101130.44;5003579;28;20034;-33
2023/01/04 12:17:13;;;;;;;;;;;;;;;12.83;nan;101114.34;5002565;28;20112;-33
2023/01/04 12:19:42;;;;;;;;;;;;;;;12.82;nan;101110.03;5002905;28;19996;-33
2023/01/04 12:22:34;;;;;;;;;;;;;;;12.82;nan;101122.66;5002553;28;19975;-34
2023/01/04 12:25:00;;;;;;;;;;;;;;;12.92;nan;101095.88;5001758;28;20289;-34
2023/01/04 12:27:26;;;;;;;;;;;;;;;12.85;nan;101114.91;5001801;28;20296;-34
2023/01/04 12:29:51;;;;;;;;;;;;;;;12.81;nan;101112.97;5003993;28;19921;-33
2023/01/04 12:32:16;;;;;;;;;;;;;;;12.89;nan;101109.81;5004520;28;20451;-34
2023/01/04 12:34:43;;;;;;;;;;;;;;;12.90;nan;101120.31;5004928;28;19925;-33
2023/01/04 12:37:09;;;;;;;;;;;;;;;12.96;nan;101084.38;5004814;28;19917;-34
2023/01/04 12:39:41;;;;;;;;;;;;;;;12.92;nan;101077.84;5004764;28;20406;-33
2023/01/04 12:42:08;;;;;;;;;;;;;;;12.90;nan;101085.38;5003837;28;19925;-34
2023/01/04 12:44:45;;;;;;;;;;;;;;;13.00;nan;101085.47;5004466;28;19917;-33
2023/01/04 12:50:01;;;;;;;;;;;;;;;12.96;nan;101062.84;5003064;28;20012;-33
2023/01/04 12:52:27;;;;;;;;;;;;;;;12.99;nan;101067.72;5003571;28;19921;-33
2023/01/04 12:54:53;;;;;;;;;;;;;;;13.01;nan;101057.50;5005473;28;19932;-33
2023/01/04 12:57:24;;;;;;;;;;;;;;;13.08;nan;101043.81;5004447;28;19917;-34
2023/01/04 12:59:57;;;;;;;;;;;;;;;13.09;nan;101050.00;5004955;28;19921;-33
2023/01/04 13:02:27;;;;;;;;;;;;;;;13.00;nan;101036.25;5003228;28;19922;-33
2023/01/04 13:04:54;;;;;;;;;;;;;;;13.02;nan;101036.78;5004688;28;19964;-33
2023/01/04 13:07:39;;;;;;;;;;;;;;;13.09;nan;101045.44;5007884;28;20359;-34
2023/01/04 13:10:22;;;;;;;;;;;;;;;12.97;nan;101028.69;5006230;28;19917;-35
2023/01/04 13:12:54;;;;;;;;;;;;;;;12.98;nan;101014.97;5006023;28;19929;-34
2023/01/04 13:15:27;;;;;;;;;;;;;;;12.97;nan;101010.66;5006931;28;19921;-33
2023/01/04 13:17:53;;;;;;;;;;;;;;;13.07;nan;101011.81;5005497;28;19940;-33
2023/01/04 13:20:24;;;;;;;;;;;;;;;13.11;nan;101011.06;5007116;28;19918;-34
2023/01/04 13:22:54;;;;;;;;;;;;;;;13.10;nan;101027.44;5007684;28;20068;-33
2023/01/04 13:25:22;;;;;;;;;;;;;;;13.12;nan;100993.84;5006083;28;19929;-34
2023/01/04 13:28:00;;;;;;;;;;;;;;;13.10;nan;101003.22;5002063;28;19925;-33
2023/01/04 13:30:29;;;;;;;;;;;;;;;13.05;nan;101006.69;5006399;28;19925;-34
2023/01/04 13:32:54;;;;;;;;;;;;;;;13.12;nan;100996.53;5007129;28;19921;-34
2023/01/04 13:35:20;;;;;;;;;;;;;;;13.16;nan;100986.88;5005092;28;20358;-35
2023/01/04 13:37:46;;;;;;;;;;;;;;;13.20;nan;100995.25;5005601;28;19960;-33
2023/01/04 13:40:12;;;;;;;;;;;;;;;13.21;nan;100996.88;5004913;28;19924;-33
2023/01/04 13:42:46;;;;;;;;;;;;;;;13.22;nan;100990.41;5005614;28;19960;-34
2023/01/04 13:45:30;;;;;;;;;;;;;;;13.30;nan;100990.75;5007687;28;20340;-34
2023/01/04 13:47:57;;;;;;;;;;;;;;;13.39;nan;100984.88;5004067;28;19921;-33
2023/01/04 13:50:34;;;;;;;;;;;;;;;13.41;nan;100969.28;5030231;22;20340;-35
2023/01/04 13:53:00;;;;;;;;;;;;;;;13.42;nan;100971.69;5030246;28;19952;-37